Evelyn Maersk — OXHV2 — position and weather

sailwx.info

Track history (hours):
 
Tides and Currents Weather Stations Pressure Air Temp Water Temp Dewpoint Dewpoint Depression Visibility Wind Speed Wind Dir Waves Ship Positions

Evelyn Maersk

Last reported at 2015-Aug-03 12:18 UTC. Time now 2015-Aug-03 13:09 UTC.
Position N 23°56' E 118°28'.

Length 398 m; draft 14.4 m.

Type: Cargo ship. MMSI: 220496000.

Date/timePositionNaut miles runAvg speedWind from/ knotsBaromVisibWave heightAir tempDewpointWater temp
2015-Aug-03 12:18N 23°56' E 118°28'1317.9
2015-Aug-03 11:33N 24°04' E 118°39'1818.2
2015-Aug-03 10:33N 24°14' E 118°56'1919.3
2015-Aug-03 09:33N 24°26' E 119°12'2019.8
2015-Aug-03 08:33N 24°39' E 119°29'2019.9
2015-Aug-03 07:33N 24°52' E 119°46'2019.8
2015-Aug-03 06:33N 25°05' E 120°01'2619.8
2015-Aug-03 05:15N 25°26' E 120°18'24919.0
2015-Aug-02 16:09N 29°04' E 122°33'1219.5
2015-Aug-02 15:31N 29°17' E 122°34'1919.4
2015-Aug-02 14:32N 29°36' E 122°32'1514.8
2015-Aug-02 13:31N 29°45' E 122°19'9 9.4
2015-Aug-02 12:32N 29°52' E 122°11'8 7.9
2015-Aug-02 11:33N 29°54' E 122°03'0 0.3
2015-Aug-02 10:30N 29°53' E 122°03'0 0.0
2015-Aug-02 09:33N 29°53' E 122°03'0 0.0
2015-Aug-02 07:30N 29°53' E 122°03'0 0.0
2015-Aug-02 02:33N 29°53' E 122°03'0 0.0
2015-Aug-02 01:33N 29°53' E 122°03'0 0.0
2015-Aug-02 00:30N 29°53' E 122°03'0 0.0
2015-Aug-01 23:30N 29°53' E 122°03'0 0.0
2015-Aug-01 22:24N 29°53' E 122°03'0 0.0
2015-Aug-01 21:30N 29°53' E 122°03'0 0.0
2015-Aug-01 19:03N 29°53' E 122°03'0 0.5
2015-Aug-01 18:15N 29°54' E 122°03'6 8.6
2015-Aug-01 17:33N 29°56' E 122°10'1312.0
2015-Aug-01 16:29N 29°46' E 122°19'7 7.6
2015-Aug-01 15:33N 29°44' E 122°27'8 7.8
2015-Aug-01 14:32N 29°41' E 122°35'8 8.3
2015-Aug-01 13:33N 29°45' E 122°44'10 9.1
2015-Aug-01 12:29N 29°53' E 122°51'1110.3
2015-Aug-01 11:28N 29°59' E 123°00'1010.3
2015-Aug-01 10:30N 30°09' E 123°03'1010.2
2015-Aug-01 09:32N 30°18' E 122°59'1312.4
2015-Aug-01 08:30N 30°26' E 122°48'1312.9
2015-Aug-01 07:28N 30°30' E 122°33'1614.0
2015-Aug-01 06:20N 30°33' E 122°15'7 9.4
2015-Aug-01 05:33N 30°35' E 122°06'4 3.8
2015-Aug-01 04:33N 30°38' E 122°03'0 0.0
2015-Aug-01 03:29N 30°38' E 122°03'0 0.0
2015-Aug-01 02:32N 30°38' E 122°03'0 0.0
2015-Aug-01 01:11N 30°38' E 122°03'0 0.0
2015-Aug-01 00:29N 30°38' E 122°03'0 0.0
2015-Jul-31 23:32N 30°38' E 122°03'0 0.0
2015-Jul-31 22:32N 30°38' E 122°03'0 0.0
2015-Jul-31 21:26N 30°38' E 122°03'0 0.0
2015-Jul-31 20:17N 30°38' E 122°03'0 0.0
2015-Jul-31 19:29N 30°38' E 122°03'0 0.0
2015-Jul-31 18:20N 30°38' E 122°03'0 0.0
2015-Jul-31 17:26N 30°38' E 122°03'0 0.0
2015-Jul-31 15:11N 30°38' E 122°03'0 0.0
2015-Jul-31 14:17N 30°38' E 122°03'0 0.0
2015-Jul-31 13:29N 30°38' E 122°03'0 0.0
2015-Jul-31 12:32N 30°38' E 122°03'0 0.0
2015-Jul-31 11:32N 30°38' E 122°03'0 0.0
2015-Jul-31 10:29N 30°38' E 122°03'0 0.0
2015-Jul-31 09:32N 30°38' E 122°03'0 0.0
2015-Jul-31 08:32N 30°38' E 122°03'1 1.0
2015-Jul-31 07:33N 30°37' E 122°04'8 8.3
2015-Jul-31 06:33N 30°34' E 122°12'7 6.7
2015-Jul-31 05:33N 30°33' E 122°20'3 3.3
2015-Jul-31 04:34N 30°33' E 122°24'8 8.1
2015-Jul-31 03:34N 30°33' E 122°33'8 7.7
2015-Jul-31 02:33N 30°34' E 122°42'8 8.4
2015-Jul-31 01:33N 30°35' E 122°52'2010.1
2015-Jul-30 23:33N 30°53' E 123°02'1010.4
2015-Jul-30 22:33N 31°03' E 123°07'1110.7
2015-Jul-30 21:33N 31°13' E 123°11'1110.9
2015-Jul-30 20:33N 31°22' E 123°18'1110.9
2015-Jul-30 19:33N 31°33' E 123°21'1111.2
2015-Jul-30 18:34N 31°44' E 123°19'1110.4
2015-Jul-30 17:32N 31°55' E 123°18'10 9.8
2015-Jul-30 16:33N 32°04' E 123°16'9 9.3
2015-Jul-30 15:33N 32°13' E 123°14'1110.7
2015-Jul-30 14:32N 32°24' E 123°14'2 1.9
2015-Jul-30 13:33N 32°25' E 123°16'2 2.2
2015-Jul-30 12:33N 32°24' E 123°18'2 1.9
2015-Jul-30 11:33N 32°24' E 123°20'1 1.4
2015-Jul-30 10:33N 32°24' E 123°22'1 1.1
2015-Jul-30 09:33N 32°25' E 123°22'2 1.4
2015-Jul-30 08:28N 32°26' E 123°22'6 6.4
2015-Jul-30 07:33N 32°32' E 123°22'1212.0
2015-Jul-30 06:33N 32°44' E 123°21'2311.4
2015-Jul-30 04:33N 33°06' E 123°16'5611.0
2015-Jul-29 23:26N 34°01' E 123°02'1211.8
2015-Jul-29 22:26N 34°13' E 122°59'1411.4
2015-Jul-29 21:10N 34°24' E 122°47'129 3.2
2015-Jul-28 04:22N 36°33' E 122°44'1417.2
2015-Jul-28 03:32N 36°42' E 122°57'5516.6
2015-Jul-28 00:14N 37°35' E 123°15'1716.8
2015-Jul-27 23:14N 37°46' E 122°59'1817.0
2015-Jul-27 22:11N 37°52' E 122°38'1317.1
2015-Jul-27 21:25N 37°58' E 122°22'1517.5
2015-Jul-27 20:33N 38°04' E 122°05'1817.7
2015-Jul-27 19:34N 38°10' E 121°44'1817.8
2015-Jul-27 18:33N 38°20' E 121°25'1817.9
2015-Jul-27 17:33N 38°28' E 121°05'1615.1
2015-Jul-27 16:29N 38°33' E 120°45'1617.4
2015-Jul-27 15:33N 38°36' E 120°25'1717.2
2015-Jul-27 14:33N 38°38' E 120°03'1716.8
2015-Jul-27 13:33N 38°40' E 119°41'1716.6
2015-Jul-27 12:30N 38°43' E 119°19'5315.7
2015-Jul-27 09:07N 38°51' E 118°12'610.2
2015-Jul-27 08:33N 38°55' E 118°06'9 9.1
2015-Jul-27 07:33N 38°57' E 117°55'7 6.8
2015-Jul-27 06:33N 38°60' E 117°47'0 0.3
2015-Jul-27 05:33N 38°60' E 117°47'0 0.0
2015-Jul-27 04:27N 38°60' E 117°47'0 0.0
2015-Jul-27 03:27N 38°60' E 117°47'0 0.0
2015-Jul-27 02:27N 38°60' E 117°47'0 0.0
2015-Jul-27 01:33N 38°60' E 117°47'0 0.0
2015-Jul-27 00:33N 38°60' E 117°47'0 0.0
2015-Jul-26 23:33N 38°60' E 117°47'0 0.0
2015-Jul-26 22:33N 38°60' E 117°47'0 0.0
2015-Jul-26 21:33N 38°60' E 117°47'0 0.0
2015-Jul-26 20:33N 38°60' E 117°47'0 0.0
2015-Jul-26 19:33N 38°60' E 117°47'0 0.0
2015-Jul-26 18:33N 38°60' E 117°47'0 0.0
2015-Jul-26 17:33N 38°60' E 117°47'0 0.0
2015-Jul-26 16:33N 38°60' E 117°47'0 0.0
2015-Jul-26 15:33N 38°60' E 117°47'0 0.0
2015-Jul-26 14:33N 38°60' E 117°47'0 0.0
2015-Jul-26 13:33N 38°60' E 117°47'0 0.0
2015-Jul-26 12:33N 38°60' E 117°47'0 0.0
2015-Jul-26 11:33N 38°60' E 117°47'0 0.0
2015-Jul-26 10:33N 38°60' E 117°47'0 0.0
2015-Jul-26 09:33N 38°60' E 117°47'0 0.0
2015-Jul-26 08:33N 38°60' E 117°47'0 0.0
2015-Jul-26 07:33N 38°60' E 117°47'0 0.0
2015-Jul-26 06:33N 38°60' E 117°47'0 0.0
2015-Jul-26 05:33N 38°60' E 117°47'0 0.0
2015-Jul-26 04:33N 38°60' E 117°47'0 0.0
2015-Jul-26 03:33N 38°60' E 117°47'0 0.0
2015-Jul-26 02:33N 38°60' E 117°47'0 0.0
2015-Jul-26 01:33N 38°60' E 117°47'0 0.0
2015-Jul-26 00:33N 38°60' E 117°47'0 0.0
2015-Jul-25 23:27N 38°60' E 117°47'0 0.0
2015-Jul-25 22:33N 38°60' E 117°47'0 0.0
2015-Jul-25 21:33N 38°60' E 117°47'0 0.0
2015-Jul-25 20:33N 38°60' E 117°47'0 0.0
2015-Jul-25 19:33N 38°60' E 117°47'0 0.0
2015-Jul-25 18:33N 38°60' E 117°47'0 0.0
2015-Jul-25 17:33N 38°60' E 117°47'0 0.0
2015-Jul-25 16:33N 38°60' E 117°47'0 0.0
2015-Jul-25 15:33N 38°60' E 117°47'0 0.0
2015-Jul-25 14:33N 38°60' E 117°47'0 0.0
2015-Jul-25 13:33N 38°60' E 117°47'1 0.8
2015-Jul-25 12:33N 38°59' E 117°47'1111.4
2015-Jul-25 11:33N 38°56' E 118°02'5 4.6
2015-Jul-25 10:33N 38°56' E 118°07'2713.5
2015-Jul-25 08:33N 38°49' E 118°41'1715.6
2015-Jul-25 07:30N 38°49' E 119°02'3317.0
2015-Jul-25 05:33N 38°45' E 119°44'1816.8
2015-Jul-25 04:29N 38°42' E 120°07'5814.6
2015-Jul-25 00:30N 38°28' E 121°19'3417.5
2015-Jul-24 22:34N 38°10' E 121°56'1717.3
2015-Jul-24 21:33N 38°02' E 122°15'1716.5
2015-Jul-24 20:31N 37°55' E 122°35'  
Track history (hours):
 
Tides and Currents Weather Stations Pressure Air Temp Water Temp Dewpoint Dewpoint Depression Visibility Wind Speed Wind Dir Waves Ship Positions

Evelyn Maersk

Last reported at 2015-Aug-03 12:18 UTC. Time now 2015-Aug-03 13:09 UTC.
Position N 23°56' E 118°28'.

Length 398 m; draft 14.4 m.

Type: Cargo ship. MMSI: 220496000.

Date/timePositionNaut miles runAvg speedWind from/ knotsBaromVisibWave heightAir tempDewpointWater temp
2015-Aug-03 12:18N 23°56' E 118°28'1317.9
2015-Aug-03 11:33N 24°04' E 118°39'1818.2
2015-Aug-03 10:33N 24°14' E 118°56'1919.3
2015-Aug-03 09:33N 24°26' E 119°12'2019.8
2015-Aug-03 08:33N 24°39' E 119°29'2019.9
2015-Aug-03 07:33N 24°52' E 119°46'2019.8
2015-Aug-03 06:33N 25°05' E 120°01'2619.8
2015-Aug-03 05:15N 25°26' E 120°18'24919.0
2015-Aug-02 16:09N 29°04' E 122°33'1219.5
2015-Aug-02 15:31N 29°17' E 122°34'1919.4
2015-Aug-02 14:32N 29°36' E 122°32'1514.8
2015-Aug-02 13:31N 29°45' E 122°19'9 9.4
2015-Aug-02 12:32N 29°52' E 122°11'8 7.9
2015-Aug-02 11:33N 29°54' E 122°03'0 0.3
2015-Aug-02 10:30N 29°53' E 122°03'0 0.0
2015-Aug-02 09:33N 29°53' E 122°03'0 0.0
2015-Aug-02 07:30N 29°53' E 122°03'0 0.0
2015-Aug-02 02:33N 29°53' E 122°03'0 0.0
2015-Aug-02 01:33N 29°53' E 122°03'0 0.0
2015-Aug-02 00:30N 29°53' E 122°03'0 0.0
2015-Aug-01 23:30N 29°53' E 122°03'0 0.0
2015-Aug-01 22:24N 29°53' E 122°03'0 0.0
2015-Aug-01 21:30N 29°53' E 122°03'0 0.0
2015-Aug-01 19:03N 29°53' E 122°03'0 0.5
2015-Aug-01 18:15N 29°54' E 122°03'6 8.6
2015-Aug-01 17:33N 29°56' E 122°10'1312.0
2015-Aug-01 16:29N 29°46' E 122°19'7 7.6
2015-Aug-01 15:33N 29°44' E 122°27'8 7.8
2015-Aug-01 14:32N 29°41' E 122°35'8 8.3
2015-Aug-01 13:33N 29°45' E 122°44'10 9.1
2015-Aug-01 12:29N 29°53' E 122°51'1110.3
2015-Aug-01 11:28N 29°59' E 123°00'1010.3
2015-Aug-01 10:30N 30°09' E 123°03'1010.2
2015-Aug-01 09:32N 30°18' E 122°59'1312.4
2015-Aug-01 08:30N 30°26' E 122°48'1312.9
2015-Aug-01 07:28N 30°30' E 122°33'1614.0
2015-Aug-01 06:20N 30°33' E 122°15'7 9.4
2015-Aug-01 05:33N 30°35' E 122°06'4 3.8
2015-Aug-01 04:33N 30°38' E 122°03'0 0.0
2015-Aug-01 03:29N 30°38' E 122°03'0 0.0
2015-Aug-01 02:32N 30°38' E 122°03'0 0.0
2015-Aug-01 01:11N 30°38' E 122°03'0 0.0
2015-Aug-01 00:29N 30°38' E 122°03'0 0.0
2015-Jul-31 23:32N 30°38' E 122°03'0 0.0
2015-Jul-31 22:32N 30°38' E 122°03'0 0.0
2015-Jul-31 21:26N 30°38' E 122°03'0 0.0
2015-Jul-31 20:17N 30°38' E 122°03'0 0.0
2015-Jul-31 19:29N 30°38' E 122°03'0 0.0
2015-Jul-31 18:20N 30°38' E 122°03'0 0.0
2015-Jul-31 17:26N 30°38' E 122°03'0 0.0
2015-Jul-31 15:11N 30°38' E 122°03'0 0.0
2015-Jul-31 14:17N 30°38' E 122°03'0 0.0
2015-Jul-31 13:29N 30°38' E 122°03'0 0.0
2015-Jul-31 12:32N 30°38' E 122°03'0 0.0
2015-Jul-31 11:32N 30°38' E 122°03'0 0.0
2015-Jul-31 10:29N 30°38' E 122°03'0 0.0
2015-Jul-31 09:32N 30°38' E 122°03'0 0.0
2015-Jul-31 08:32N 30°38' E 122°03'1 1.0
2015-Jul-31 07:33N 30°37' E 122°04'8 8.3
2015-Jul-31 06:33N 30°34' E 122°12'7 6.7
2015-Jul-31 05:33N 30°33' E 122°20'3 3.3
2015-Jul-31 04:34N 30°33' E 122°24'8 8.1
2015-Jul-31 03:34N 30°33' E 122°33'8 7.7
2015-Jul-31 02:33N 30°34' E 122°42'8 8.4
2015-Jul-31 01:33N 30°35' E 122°52'2010.1
2015-Jul-30 23:33N 30°53' E 123°02'1010.4
2015-Jul-30 22:33N 31°03' E 123°07'1110.7
2015-Jul-30 21:33N 31°13' E 123°11'1110.9
2015-Jul-30 20:33N 31°22' E 123°18'1110.9
2015-Jul-30 19:33N 31°33' E 123°21'1111.2
2015-Jul-30 18:34N 31°44' E 123°19'1110.4
2015-Jul-30 17:32N 31°55' E 123°18'10 9.8
2015-Jul-30 16:33N 32°04' E 123°16'9 9.3
2015-Jul-30 15:33N 32°13' E 123°14'1110.7
2015-Jul-30 14:32N 32°24' E 123°14'2 1.9
2015-Jul-30 13:33N 32°25' E 123°16'2 2.2
2015-Jul-30 12:33N 32°24' E 123°18'2 1.9
2015-Jul-30 11:33N 32°24' E 123°20'1 1.4
2015-Jul-30 10:33N 32°24' E 123°22'1 1.1
2015-Jul-30 09:33N 32°25' E 123°22'2 1.4
2015-Jul-30 08:28N 32°26' E 123°22'6 6.4
2015-Jul-30 07:33N 32°32' E 123°22'1212.0
2015-Jul-30 06:33N 32°44' E 123°21'2311.4
2015-Jul-30 04:33N 33°06' E 123°16'5611.0
2015-Jul-29 23:26N 34°01' E 123°02'1211.8
2015-Jul-29 22:26N 34°13' E 122°59'1411.4
2015-Jul-29 21:10N 34°24' E 122°47'129 3.2
2015-Jul-28 04:22N 36°33' E 122°44'1417.2
2015-Jul-28 03:32N 36°42' E 122°57'5516.6
2015-Jul-28 00:14N 37°35' E 123°15'1716.8
2015-Jul-27 23:14N 37°46' E 122°59'1817.0
2015-Jul-27 22:11N 37°52' E 122°38'1317.1
2015-Jul-27 21:25N 37°58' E 122°22'1517.5
2015-Jul-27 20:33N 38°04' E 122°05'1817.7
2015-Jul-27 19:34N 38°10' E 121°44'1817.8
2015-Jul-27 18:33N 38°20' E 121°25'1817.9
2015-Jul-27 17:33N 38°28' E 121°05'1615.1
2015-Jul-27 16:29N 38°33' E 120°45'1617.4
2015-Jul-27 15:33N 38°36' E 120°25'1717.2
2015-Jul-27 14:33N 38°38' E 120°03'1716.8
2015-Jul-27 13:33N 38°40' E 119°41'1716.6
2015-Jul-27 12:30N 38°43' E 119°19'5315.7
2015-Jul-27 09:07N 38°51' E 118°12'610.2
2015-Jul-27 08:33N 38°55' E 118°06'9 9.1
2015-Jul-27 07:33N 38°57' E 117°55'7 6.8
2015-Jul-27 06:33N 38°60' E 117°47'0 0.3
2015-Jul-27 05:33N 38°60' E 117°47'0 0.0
2015-Jul-27 04:27N 38°60' E 117°47'0 0.0
2015-Jul-27 03:27N 38°60' E 117°47'0 0.0
2015-Jul-27 02:27N 38°60' E 117°47'0 0.0
2015-Jul-27 01:33N 38°60' E 117°47'0 0.0
2015-Jul-27 00:33N 38°60' E 117°47'0 0.0
2015-Jul-26 23:33N 38°60' E 117°47'0 0.0
2015-Jul-26 22:33N 38°60' E 117°47'0 0.0
2015-Jul-26 21:33N 38°60' E 117°47'0 0.0
2015-Jul-26 20:33N 38°60' E 117°47'0 0.0
2015-Jul-26 19:33N 38°60' E 117°47'0 0.0
2015-Jul-26 18:33N 38°60' E 117°47'0 0.0
2015-Jul-26 17:33N 38°60' E 117°47'0 0.0
2015-Jul-26 16:33N 38°60' E 117°47'0 0.0
2015-Jul-26 15:33N 38°60' E 117°47'0 0.0
2015-Jul-26 14:33N 38°60' E 117°47'0 0.0
2015-Jul-26 13:33N 38°60' E 117°47'0 0.0
2015-Jul-26 12:33N 38°60' E 117°47'0 0.0
2015-Jul-26 11:33N 38°60' E 117°47'0 0.0
2015-Jul-26 10:33N 38°60' E 117°47'0 0.0
2015-Jul-26 09:33N 38°60' E 117°47'0 0.0
2015-Jul-26 08:33N 38°60' E 117°47'0 0.0
2015-Jul-26 07:33N 38°60' E 117°47'0 0.0
2015-Jul-26 06:33N 38°60' E 117°47'0 0.0
2015-Jul-26 05:33N 38°60' E 117°47'0 0.0
2015-Jul-26 04:33N 38°60' E 117°47'0 0.0
2015-Jul-26 03:33N 38°60' E 117°47'0 0.0
2015-Jul-26 02:33N 38°60' E 117°47'0 0.0
2015-Jul-26 01:33N 38°60' E 117°47'0 0.0
2015-Jul-26 00:33N 38°60' E 117°47'0 0.0
2015-Jul-25 23:27N 38°60' E 117°47'0 0.0
2015-Jul-25 22:33N 38°60' E 117°47'0 0.0
2015-Jul-25 21:33N 38°60' E 117°47'0 0.0
2015-Jul-25 20:33N 38°60' E 117°47'0 0.0
2015-Jul-25 19:33N 38°60' E 117°47'0 0.0
2015-Jul-25 18:33N 38°60' E 117°47'0 0.0
2015-Jul-25 17:33N 38°60' E 117°47'0 0.0
2015-Jul-25 16:33N 38°60' E 117°47'0 0.0
2015-Jul-25 15:33N 38°60' E 117°47'0 0.0
2015-Jul-25 14:33N 38°60' E 117°47'0 0.0
2015-Jul-25 13:33N 38°60' E 117°47'1 0.8
2015-Jul-25 12:33N 38°59' E 117°47'1111.4
2015-Jul-25 11:33N 38°56' E 118°02'5 4.6
2015-Jul-25 10:33N 38°56' E 118°07'2713.5
2015-Jul-25 08:33N 38°49' E 118°41'1715.6
2015-Jul-25 07:30N 38°49' E 119°02'3317.0
2015-Jul-25 05:33N 38°45' E 119°44'1816.8
2015-Jul-25 04:29N 38°42' E 120°07'5814.6
2015-Jul-25 00:30N 38°28' E 121°19'3417.5
2015-Jul-24 22:34N 38°10' E 121°56'1717.3
2015-Jul-24 21:33N 38°02' E 122°15'1716.5
2015-Jul-24 20:31N 37°55' E 122°35'  

Dump ship's entire track history